createdAt,value
2023-01-01T00:00:51.286Z,75.38
2023-01-01T00:03:20.007Z,74.52
2023-01-01T00:05:48.735Z,74.09
2023-01-01T00:08:17.529Z,74.02
2023-01-01T00:10:46.073Z,73.72
2023-01-01T00:13:15.934Z,74.29
2023-01-01T00:15:48.488Z,74.77
2023-01-01T00:18:17.025Z,74.72
2023-01-01T00:20:45.704Z,74.80
2023-01-01T00:23:14.153Z,75.21
2023-01-01T00:25:42.921Z,75.21
2023-01-01T00:28:11.436Z,79.31
2023-01-01T00:30:43.231Z,75.92
2023-01-01T00:33:13.124Z,77.55
2023-01-01T00:35:41.827Z,74.05
2023-01-01T00:38:10.287Z,74.29
2023-01-01T00:40:38.777Z,74.47
2023-01-01T00:43:07.308Z,75.64
2023-01-01T00:45:35.939Z,75.62
2023-01-01T00:48:04.508Z,75.35
2023-01-01T00:50:34.384Z,74.47
2023-01-01T00:53:02.872Z,74.88
2023-01-01T00:55:31.331Z,75.66
2023-01-01T00:57:59.778Z,76.52
2023-01-01T01:00:28.703Z,75.36
2023-01-01T01:02:57.227Z,78.55
2023-01-01T01:05:25.867Z,77.56
2023-01-01T01:07:56.473Z,79.68
2023-01-01T01:10:26.383Z,76.41
2023-01-01T01:12:54.907Z,77.95
2023-01-01T01:15:23.596Z,76.03
2023-01-01T01:17:52.049Z,77.48
2023-01-01T01:20:20.956Z,78.92
2023-01-01T01:22:49.423Z,79.52
2023-01-01T01:25:19.516Z,75.92
2023-01-01T01:27:48.210Z,81.27
2023-01-01T01:30:16.904Z,80.80
2023-01-01T01:32:45.478Z,80.90
2023-01-01T01:35:14.208Z,83.37
2023-01-01T01:37:42.659Z,81.12
2023-01-01T01:40:15.877Z,81.01
2023-01-01T01:42:52.255Z,82.47
2023-01-01T01:45:21.205Z,80.39
2023-01-01T01:47:53.232Z,82.36
2023-01-01T01:50:27.590Z,80.43
2023-01-01T01:53:05.028Z,80.63
2023-01-01T01:55:38.991Z,80.99
2023-01-01T01:58:11.515Z,82.03
2023-01-01T02:00:40.735Z,78.88
2023-01-01T02:03:12.494Z,83.42
2023-01-01T02:05:42.875Z,82.65
2023-01-01T02:08:14.900Z,80.08
2023-01-01T02:10:43.462Z,82.89
2023-01-01T02:13:13.815Z,79.62
2023-01-01T02:15:52.209Z,77.78
2023-01-01T02:18:26.057Z,77.33
2023-01-01T02:21:01.478Z,77.47
2023-01-01T02:24:13.776Z,81.41
2023-01-01T02:26:55.691Z,81.63
2023-01-01T02:29:41.966Z,79.35
2023-01-01T02:32:14.465Z,84.46
2023-01-01T02:34:48.849Z,80.69
2023-01-01T02:37:20.775Z,79.37
2023-01-01T02:39:54.285Z,81.18
2023-01-01T02:42:25.117Z,83.42
2023-01-01T02:44:57.998Z,80.07
2023-01-01T02:47:26.595Z,81.02
2023-01-01T02:50:10.473Z,82.17
2023-01-01T02:52:55.981Z,81.53
2023-01-01T02:55:37.267Z,83.21
2023-01-01T02:58:48.633Z,79.68
2023-01-01T03:01:28.871Z,79.41
2023-01-01T03:04:07.829Z,82.68
2023-01-01T03:06:43.395Z,78.89
2023-01-01T03:09:22.233Z,80.99
2023-01-01T03:11:59.163Z,81.70
2023-01-01T03:14:36.080Z,79.46
2023-01-01T03:17:12.775Z,81.04
2023-01-01T03:19:43.503Z,80.96
2023-01-01T03:22:15.478Z,83.74
2023-01-01T03:24:49.763Z,82.35
2023-01-01T03:27:21.999Z,84.49
2023-01-01T03:29:54.932Z,82.90
2023-01-01T03:32:49.661Z,81.81
2023-01-01T03:35:21.299Z,83.85
2023-01-01T03:37:52.931Z,84.59
2023-01-01T03:40:23.663Z,83.79
2023-01-01T03:42:56.547Z,86.70
2023-01-01T03:45:31.136Z,85.13
2023-01-01T03:48:02.037Z,86.23
2023-01-01T03:50:41.245Z,83.79
2023-01-01T03:53:20.278Z,86.69
2023-01-01T03:55:54.776Z,84.43
2023-01-01T03:58:33.276Z,85.60
2023-01-01T04:01:10.263Z,85.55
2023-01-01T04:03:41.875Z,84.62
2023-01-01T04:06:12.850Z,83.91
2023-01-01T04:08:41.463Z,84.71
2023-01-01T04:11:44.839Z,84.89
2023-01-01T04:14:13.267Z,84.65
2023-01-01T04:16:42.188Z,85.37
2023-01-01T04:19:12.805Z,84.39
2023-01-01T04:21:41.233Z,88.04
2023-01-01T04:24:10.451Z,85.05
2023-01-01T04:26:38.873Z,85.31
2023-01-01T04:29:07.283Z,83.94
2023-01-01T04:31:35.951Z,85.85
2023-01-01T04:34:04.622Z,84.99
2023-01-01T04:36:35.232Z,85.70
2023-01-01T04:39:04.406Z,83.08
2023-01-01T04:41:33.194Z,85.86
2023-01-01T04:44:02.103Z,85.04
2023-01-01T04:46:30.527Z,84.48
2023-01-01T04:48:59.160Z,86.09
2023-01-01T04:51:27.811Z,80.91
2023-01-01T04:53:57.583Z,84.79
2023-01-01T04:56:26.255Z,85.32
2023-01-01T04:58:55.540Z,83.62
2023-01-01T05:01:27.564Z,83.49
2023-01-01T05:03:56.885Z,84.61
2023-01-01T05:06:26.523Z,85.68
2023-01-01T05:08:57.639Z,82.53
2023-01-01T05:11:28.344Z,82.31
2023-01-01T05:13:59.285Z,80.72
2023-01-01T05:16:30.335Z,75.49
2023-01-01T05:18:59.934Z,79.17
2023-01-01T05:21:32.021Z,78.81
2023-01-01T05:24:04.928Z,79.51
2023-01-01T05:26:37.072Z,73.59
2023-01-01T05:29:13.483Z,76.92
2023-01-01T05:31:44.323Z,77.98
2023-01-01T05:34:12.809Z,76.56
2023-01-01T05:36:41.275Z,77.36
2023-01-01T05:39:13.285Z,80.66
2023-01-01T05:41:42.400Z,82.21
2023-01-01T05:44:11.818Z,80.72
2023-01-01T05:46:40.515Z,81.72
2023-01-01T05:49:12.730Z,81.25
2023-01-01T05:56:38.313Z,74.61
2023-01-01T05:59:06.791Z,76.13
2023-01-01T06:01:40.160Z,76.54
2023-01-01T06:04:13.533Z,70.42
2023-01-01T06:06:42.074Z,76.32
2023-01-01T06:09:12.844Z,75.69
2023-01-01T06:11:41.571Z,71.07
2023-01-01T06:14:10.076Z,74.22
2023-01-01T06:16:38.789Z,78.09
2023-01-01T06:19:07.236Z,74.32
2023-01-01T06:21:35.651Z,71.11
2023-01-01T06:24:04.260Z,70.54
2023-01-01T06:26:35.681Z,74.86
2023-01-01T06:29:04.399Z,77.25
2023-01-01T06:31:38.517Z,76.23
2023-01-01T06:34:08.770Z,78.21
2023-01-01T06:36:37.446Z,75.56
2023-01-01T06:39:06.945Z,77.67
2023-01-01T06:41:36.740Z,79.99
2023-01-01T06:44:05.883Z,78.59
2023-01-01T06:46:36.628Z,81.17
2023-01-01T06:49:07.549Z,82.09
2023-01-01T06:51:39.641Z,80.28
2023-01-01T06:54:09.311Z,82.26
2023-01-01T06:56:40.016Z,82.32
2023-01-01T06:59:08.667Z,80.18
2023-01-01T07:01:44.454Z,80.81
2023-01-01T07:04:16.988Z,82.38
2023-01-01T07:06:45.468Z,83.00
2023-01-01T07:09:14.802Z,84.17
2023-01-01T07:11:44.669Z,83.44
2023-01-01T07:14:13.303Z,82.35
2023-01-01T07:16:41.790Z,83.17
2023-01-01T07:19:10.217Z,83.77
2023-01-01T07:21:44.132Z,85.40
2023-01-01T07:24:17.405Z,84.08
2023-01-01T07:26:47.754Z,85.52
2023-01-01T07:29:16.421Z,86.25
2023-01-01T07:31:46.211Z,85.80
2023-01-01T07:34:19.257Z,84.98
2023-01-01T07:36:47.746Z,85.78
2023-01-01T07:39:16.182Z,86.50
2023-01-01T07:41:45.988Z,84.33
2023-01-01T07:44:14.384Z,84.21
2023-01-01T07:46:42.921Z,86.63
2023-01-01T07:49:11.414Z,84.69
2023-01-01T07:51:39.899Z,85.12
2023-01-01T07:54:08.419Z,84.81
2023-01-01T07:56:37.439Z,84.05
2023-01-01T07:59:07.291Z,83.71
2023-01-01T08:01:38.377Z,84.98
2023-01-01T08:04:07.171Z,84.34
2023-01-01T08:06:35.768Z,84.40
2023-01-01T08:09:04.462Z,86.28
2023-01-01T08:11:32.925Z,85.61
2023-01-01T08:14:01.688Z,85.07
2023-01-01T08:16:31.659Z,87.62
2023-01-01T08:19:00.314Z,86.23
2023-01-01T08:21:28.746Z,86.61
2023-01-01T08:23:57.783Z,87.61
2023-01-01T08:26:32.163Z,87.39
2023-01-01T08:29:03.518Z,86.40
2023-01-01T08:31:33.577Z,88.18
2023-01-01T08:34:02.222Z,86.87
2023-01-01T08:36:30.725Z,85.87
2023-01-01T08:38:59.168Z,87.32
2023-01-01T08:41:27.874Z,86.80
2023-01-01T08:43:56.334Z,87.20
2023-01-01T08:46:24.798Z,86.90
2023-01-01T08:48:54.635Z,88.28
2023-01-01T08:51:25.929Z,88.08
2023-01-01T08:53:54.416Z,87.98
2023-01-01T08:56:22.930Z,87.44
2023-01-01T08:58:51.759Z,86.15
2023-01-01T09:01:22.236Z,85.50
2023-01-01T09:03:50.882Z,84.63
2023-01-01T09:06:20.989Z,82.70
2023-01-01T09:08:50.091Z,81.70
2023-01-01T09:11:25.006Z,81.33
2023-01-01T09:13:54.434Z,79.09
2023-01-01T09:16:23.622Z,76.54
2023-01-01T09:18:52.481Z,69.54
2023-01-01T09:21:22.590Z,76.67
2023-01-01T09:23:51.229Z,80.42
2023-01-01T09:26:19.881Z,80.83
2023-01-01T09:28:48.308Z,75.20
2023-01-01T09:31:16.755Z,75.70
2023-01-01T09:33:45.398Z,68.58
2023-01-01T09:36:16.819Z,73.97
2023-01-01T09:38:50.258Z,68.55
2023-01-01T09:41:29.116Z,70.27
2023-01-01T09:44:07.251Z,64.25
2023-01-01T09:46:37.008Z,69.38
2023-01-01T09:49:14.683Z,67.54
2023-01-01T09:51:50.124Z,60.93
2023-01-01T09:54:30.154Z,63.12
2023-01-01T09:57:02.780Z,61.88
2023-01-01T09:59:31.907Z,61.79
2023-01-01T10:02:15.329Z,59.34
2023-01-01T10:04:59.287Z,63.02
2023-01-01T10:07:43.673Z,65.33
2023-01-01T10:10:29.426Z,64.33
2023-01-01T10:13:06.297Z,59.17
2023-01-01T10:15:40.596Z,60.23
2023-01-01T10:18:23.051Z,58.94
2023-01-01T10:21:00.834Z,55.79
2023-01-01T10:23:35.567Z,55.12
2023-01-01T10:26:13.011Z,58.92
2023-01-01T10:28:48.565Z,55.39
2023-01-01T10:31:19.683Z,56.09
2023-01-01T10:33:49.345Z,56.86
2023-01-01T10:36:20.804Z,57.97
2023-01-01T10:38:50.651Z,53.91
2023-01-01T10:41:20.539Z,49.85
2023-01-01T10:43:50.541Z,56.32
2023-01-01T10:46:31.364Z,52.77
2023-01-01T10:49:11.097Z,54.25
2023-01-01T10:51:45.779Z,56.09
2023-01-01T10:54:34.992Z,52.73
2023-01-01T10:57:16.257Z,53.84
2023-01-01T10:59:53.597Z,50.81
2023-01-01T11:02:25.081Z,51.76
2023-01-01T11:05:20.842Z,54.68
2023-01-01T11:07:50.566Z,55.58
2023-01-01T11:10:22.810Z,52.13
2023-01-01T11:13:09.821Z,50.11
2023-01-01T11:15:41.801Z,51.58
2023-01-01T11:18:15.966Z,51.38
2023-01-01T11:20:44.837Z,53.17
2023-01-01T11:23:30.713Z,50.20
2023-01-01T11:26:07.170Z,52.42
2023-01-01T11:28:37.850Z,48.54
2023-01-01T11:31:15.578Z,51.47
2023-01-01T11:33:50.764Z,50.22
2023-01-01T11:36:24.850Z,50.04
2023-01-01T11:39:09.006Z,53.98
2023-01-01T11:41:47.531Z,47.25
2023-01-01T11:44:34.234Z,51.35
2023-01-01T11:47:03.112Z,52.14
2023-01-01T11:49:32.503Z,50.35
2023-01-01T11:52:01.760Z,47.97
2023-01-01T11:54:36.062Z,50.01
2023-01-01T11:57:13.671Z,46.98
2023-01-01T11:59:52.322Z,50.98
2023-01-01T12:02:33.310Z,47.44
2023-01-01T12:05:15.013Z,45.58
2023-01-01T12:07:45.624Z,45.83
2023-01-01T12:10:22.758Z,49.24
2023-01-01T12:12:58.198Z,48.76
2023-01-01T12:15:33.602Z,47.75
2023-01-01T12:18:08.970Z,46.16
2023-01-01T12:20:43.459Z,48.45
2023-01-01T12:23:14.889Z,52.12
2023-01-01T12:25:50.514Z,51.33
2023-01-01T12:28:33.170Z,49.22
2023-01-01T12:31:13.983Z,46.68
2023-01-01T12:34:03.273Z,48.20
2023-01-01T12:36:46.488Z,47.15
2023-01-01T12:40:24.786Z,48.63
2023-01-01T12:43:03.703Z,50.07
2023-01-01T12:46:19.612Z,49.91
2023-01-01T12:49:12.569Z,46.81
2023-01-01T12:51:52.141Z,47.02
2023-01-01T12:55:20.375Z,49.88
2023-01-01T12:57:53.199Z,51.02
2023-01-01T13:00:22.564Z,51.27
2023-01-01T13:02:56.755Z,51.37
2023-01-01T13:05:30.837Z,55.09
2023-01-01T13:08:05.595Z,52.46
2023-01-01T13:10:38.932Z,49.26
2023-01-01T13:13:08.108Z,46.11
2023-01-01T13:15:49.783Z,48.35
2023-01-01T13:18:34.905Z,48.93
2023-01-01T13:21:22.524Z,46.59
2023-01-01T13:24:04.860Z,45.51
2023-01-01T13:26:39.004Z,54.16
2023-01-01T13:29:47.442Z,52.05
2023-01-01T13:32:16.562Z,56.12
2023-01-01T13:35:15.670Z,57.92
2023-01-01T13:37:47.450Z,57.92
2023-01-01T13:40:54.059Z,59.52
2023-01-01T13:43:29.144Z,60.70
2023-01-01T13:46:15.400Z,60.57
2023-01-01T13:49:21.576Z,61.19
2023-01-01T13:52:31.909Z,62.09
2023-01-01T13:55:40.989Z,62.18
2023-01-01T13:58:56.266Z,62.94
2023-01-01T14:01:52.384Z,64.14
2023-01-01T14:04:40.826Z,63.95
2023-01-01T14:07:50.167Z,64.58
2023-01-01T14:10:25.647Z,64.48
2023-01-01T14:12:56.415Z,64.85
2023-01-01T14:15:29.206Z,64.75
2023-01-01T14:18:00.596Z,65.35
2023-01-01T14:20:37.862Z,66.03
2023-01-01T14:23:12.145Z,66.27
2023-01-01T14:25:42.508Z,66.98
2023-01-01T14:28:21.375Z,66.66
2023-01-01T14:30:50.268Z,66.79
2023-01-01T14:33:25.474Z,67.24
2023-01-01T14:35:55.091Z,66.82
2023-01-01T14:38:29.118Z,67.68
2023-01-01T14:41:11.425Z,67.74
2023-01-01T14:43:41.234Z,67.40
2023-01-01T14:46:15.655Z,68.07
2023-01-01T14:48:45.744Z,69.16
2023-01-01T14:51:16.887Z,68.81
2023-01-01T14:53:46.976Z,69.10
2023-01-01T14:56:27.945Z,68.27
2023-01-01T14:59:05.789Z,68.72
2023-01-01T15:01:34.319Z,69.89
2023-01-01T15:04:05.269Z,69.73
2023-01-01T15:06:33.910Z,70.19
2023-01-01T15:09:02.433Z,70.79
2023-01-01T15:11:32.316Z,70.16
2023-01-01T15:14:03.064Z,70.32
2023-01-01T15:16:39.737Z,70.89
2023-01-01T15:19:19.664Z,71.35
2023-01-01T15:21:48.346Z,71.14
2023-01-01T15:24:22.304Z,72.32
2023-01-01T15:26:55.930Z,72.51
2023-01-01T15:29:34.493Z,72.54
2023-01-01T15:32:05.741Z,73.82
2023-01-01T15:34:38.928Z,73.68
2023-01-01T15:37:14.796Z,73.99
2023-01-01T15:39:51.988Z,74.67
2023-01-01T15:42:36.210Z,74.58
2023-01-01T15:45:29.460Z,75.36
2023-01-01T15:48:00.046Z,75.00
2023-01-01T15:50:32.807Z,74.89
2023-01-01T15:53:04.385Z,75.57
2023-01-01T15:55:36.155Z,75.83
2023-01-01T15:58:06.516Z,76.33
2023-01-01T16:00:42.304Z,76.39
2023-01-01T16:03:20.873Z,75.52
2023-01-01T16:05:51.629Z,76.40
2023-01-01T16:08:21.792Z,76.86
2023-01-01T16:10:50.996Z,76.64
2023-01-01T16:13:21.179Z,76.75
2023-01-01T16:15:54.745Z,77.93
2023-01-01T16:18:32.207Z,78.45
2023-01-01T16:21:01.502Z,77.20
2023-01-01T16:23:29.977Z,79.05
2023-01-01T16:25:58.723Z,78.91
2023-01-01T16:28:28.574Z,77.90
2023-01-01T16:30:59.190Z,79.76
2023-01-01T16:33:27.961Z,77.82
2023-01-01T16:35:56.398Z,78.52
2023-01-01T16:38:24.852Z,79.34
2023-01-01T16:40:53.494Z,78.12
2023-01-01T16:43:22.010Z,78.49
2023-01-01T16:45:53.172Z,79.16
2023-01-01T16:48:21.646Z,81.49
2023-01-01T16:50:52.556Z,79.35
2023-01-01T16:53:20.973Z,78.80
2023-01-01T16:55:52.696Z,80.37
2023-01-01T16:58:48.366Z,78.84
2023-01-01T17:01:12.183Z,82.15
2023-01-01T17:03:40.783Z,79.65
2023-01-01T17:06:11.453Z,82.66
2023-01-01T17:08:40.352Z,80.01
2023-01-01T17:11:15.906Z,81.31
2023-01-01T17:13:45.276Z,82.40
2023-01-01T17:16:25.231Z,82.69
2023-01-01T17:21:45.235Z,81.17
2023-01-01T17:24:13.766Z,82.82
2023-01-01T17:26:42.231Z,83.56
2023-01-01T17:29:11.097Z,84.56
2023-01-01T17:31:40.898Z,82.49
2023-01-01T17:34:14.232Z,84.31
2023-01-01T17:36:45.323Z,84.46
2023-01-01T17:39:15.142Z,80.86
2023-01-01T17:41:45.326Z,81.15
2023-01-01T17:44:14.025Z,81.00
2023-01-01T17:46:44.567Z,80.80
2023-01-01T17:49:13.493Z,81.47
2023-01-01T17:51:42.036Z,82.18
2023-01-01T17:54:13.926Z,83.42
2023-01-01T17:56:42.591Z,84.06
2023-01-01T17:59:11.255Z,82.41
2023-01-01T18:01:39.880Z,82.39
2023-01-01T18:04:11.039Z,84.00
2023-01-01T18:06:43.696Z,83.02
2023-01-01T18:09:15.098Z,81.67
2023-01-01T18:11:44.840Z,82.66
2023-01-01T18:14:17.361Z,83.34
2023-01-01T18:16:49.791Z,85.48
2023-01-01T18:19:19.932Z,81.98
2023-01-01T18:21:48.386Z,80.74
2023-01-01T18:24:17.902Z,81.50
2023-01-01T18:26:46.388Z,80.89
2023-01-01T18:29:15.223Z,82.94
2023-01-01T18:31:43.799Z,84.31
2023-01-01T18:34:12.689Z,82.96
2023-01-01T18:36:42.797Z,83.01
2023-01-01T18:39:17.433Z,83.94
2023-01-01T18:42:35.013Z,85.16
2023-01-01T18:45:16.727Z,84.10
2023-01-01T18:47:46.431Z,83.88
2023-01-01T18:50:25.013Z,86.03
2023-01-01T18:53:08.002Z,83.24
2023-01-01T18:55:36.622Z,83.90
2023-01-01T18:58:17.635Z,85.75
2023-01-01T19:00:46.632Z,84.22
2023-01-01T19:03:19.774Z,81.34
2023-01-01T19:05:48.713Z,82.19
2023-01-01T19:08:21.505Z,81.18
2023-01-01T19:10:52.878Z,80.88
2023-01-01T19:13:25.742Z,80.84
2023-01-01T19:15:59.257Z,83.56
2023-01-01T19:18:32.034Z,82.37
2023-01-01T19:21:09.913Z,81.68
2023-01-01T19:23:48.317Z,81.73
2023-01-01T19:26:28.203Z,80.08
2023-01-01T19:28:59.846Z,80.26
2023-01-01T19:31:28.385Z,79.41
2023-01-01T19:33:57.053Z,80.22
2023-01-01T19:36:25.493Z,78.54
2023-01-01T19:38:55.490Z,79.63
2023-01-01T19:41:23.943Z,80.10
2023-01-01T19:43:52.357Z,79.66
2023-01-01T19:46:21.013Z,81.70
2023-01-01T19:48:50.265Z,81.45
2023-01-01T19:51:19.193Z,81.23
2023-01-01T19:53:47.648Z,82.73
2023-01-01T19:56:18.111Z,81.20
2023-01-01T19:58:47.142Z,81.35
2023-01-01T20:01:16.273Z,82.07
2023-01-01T20:03:54.585Z,84.81
2023-01-01T20:06:24.293Z,83.98
2023-01-01T20:08:52.841Z,83.15
2023-01-01T20:11:23.197Z,82.66
2023-01-01T20:13:51.643Z,83.29
2023-01-01T20:16:20.166Z,84.03
2023-01-01T20:18:49.440Z,84.42
2023-01-01T20:21:35.339Z,84.15
2023-01-01T20:24:04.023Z,84.38
2023-01-01T20:26:33.857Z,84.61
2023-01-01T20:29:19.701Z,83.78
2023-01-01T20:31:48.783Z,86.33
2023-01-01T20:34:17.543Z,83.08
2023-01-01T20:37:03.843Z,82.31
2023-01-01T20:39:32.843Z,85.07
2023-01-01T20:42:03.019Z,83.90
2023-01-01T20:44:31.559Z,84.16
2023-01-01T20:47:00.388Z,84.72
2023-01-01T20:49:28.838Z,84.51
2023-01-01T20:51:57.377Z,84.80
2023-01-01T20:54:26.160Z,85.15
2023-01-01T20:56:54.860Z,82.94
2023-01-01T20:59:35.388Z,85.14
2023-01-01T21:02:05.762Z,83.96
2023-01-01T21:04:38.730Z,85.62
2023-01-01T21:07:08.980Z,85.16
2023-01-01T21:09:38.621Z,85.41
2023-01-01T21:12:07.843Z,85.11
2023-01-01T21:14:38.361Z,85.26
2023-01-01T21:17:22.229Z,84.97
2023-01-01T21:19:52.069Z,85.98
2023-01-01T21:22:20.536Z,84.35
2023-01-01T21:24:54.069Z,85.72
2023-01-01T21:27:30.521Z,85.24
2023-01-01T21:30:00.792Z,85.16
2023-01-01T21:32:37.324Z,86.04
2023-01-01T21:35:18.880Z,84.47
2023-01-01T21:37:52.885Z,85.89
2023-01-01T21:40:39.527Z,84.35
2023-01-01T21:43:27.849Z,83.84
2023-01-01T21:46:03.978Z,87.07
2023-01-01T21:48:36.035Z,85.96
2023-01-01T21:51:05.678Z,85.70
2023-01-01T21:53:36.787Z,84.47
2023-01-01T21:56:27.672Z,85.00
2023-01-01T21:59:20.290Z,84.41
2023-01-01T22:01:51.629Z,86.62
2023-01-01T22:04:22.783Z,85.39
2023-01-01T22:06:53.627Z,85.99
2023-01-01T22:09:26.140Z,85.32
2023-01-01T22:12:03.285Z,86.81
2023-01-01T22:14:39.085Z,86.67
2023-01-01T22:17:16.192Z,85.69
2023-01-01T22:19:46.358Z,87.41
2023-01-01T22:22:17.803Z,86.05
2023-01-01T22:24:52.512Z,86.47
2023-01-01T22:27:30.641Z,87.97
2023-01-01T22:30:38.722Z,86.40
2023-01-01T22:33:18.712Z,86.93
2023-01-01T22:35:47.744Z,86.45
2023-01-01T22:38:19.919Z,85.67
2023-01-01T22:40:50.836Z,85.57
2023-01-01T22:43:23.904Z,85.06
2023-01-01T22:45:52.873Z,85.10
2023-01-01T22:48:26.839Z,85.61
2023-01-01T22:50:55.260Z,85.42
2023-01-01T22:53:23.671Z,86.38
2023-01-01T22:55:52.079Z,85.73
2023-01-01T22:58:20.501Z,84.94
2023-01-01T23:00:49.423Z,86.27
2023-01-01T23:03:17.898Z,87.34
2023-01-01T23:05:47.888Z,86.41
2023-01-01T23:08:16.458Z,88.50
2023-01-01T23:10:45.198Z,87.58
2023-01-01T23:13:31.484Z,88.08
2023-01-01T23:16:03.418Z,87.85
2023-01-01T23:18:35.343Z,88.38
2023-01-01T23:21:08.698Z,85.93
2023-01-01T23:23:38.796Z,86.52
2023-01-01T23:26:08.759Z,87.36
2023-01-01T23:28:38.370Z,86.51
2023-01-01T23:31:10.651Z,86.53
2023-01-01T23:33:40.184Z,87.19
2023-01-01T23:36:10.772Z,88.07
2023-01-01T23:38:39.986Z,88.46
2023-01-01T23:41:08.418Z,89.60
2023-01-01T23:43:43.130Z,87.69
2023-01-01T23:46:12.847Z,86.24
2023-01-01T23:48:42.079Z,87.63
2023-01-01T23:51:12.377Z,86.58
2023-01-01T23:53:41.006Z,87.41
2023-01-01T23:56:09.757Z,88.25
2023-01-01T23:58:38.260Z,86.11
